createdAt,value
2023-05-03T00:00:58.752Z,444.00
2023-05-03T00:01:58.817Z,428.00
2023-05-03T00:02:58.795Z,420.00
2023-05-03T00:03:58.755Z,424.00
2023-05-03T00:04:58.804Z,445.00
2023-05-03T00:05:58.757Z,471.00
2023-05-03T00:06:58.753Z,495.00
2023-05-03T00:07:58.757Z,500.00
2023-05-03T00:08:58.755Z,500.00
2023-05-03T00:09:58.761Z,500.00
2023-05-03T00:10:58.799Z,500.00
2023-05-03T00:11:58.753Z,500.00
2023-05-03T00:12:58.761Z,499.00
2023-05-03T00:13:58.777Z,500.00
2023-05-03T00:14:58.766Z,502.00
2023-05-03T00:15:58.767Z,508.00
2023-05-03T00:16:58.796Z,505.00
2023-05-03T00:17:58.783Z,501.00
2023-05-03T00:18:58.769Z,502.00
2023-05-03T00:19:58.780Z,503.00
2023-05-03T00:20:58.778Z,505.00
2023-05-03T00:21:58.770Z,500.00
2023-05-03T00:22:58.784Z,500.00
2023-05-03T00:23:58.781Z,505.00
2023-05-03T00:24:58.771Z,504.00
2023-05-03T00:25:58.799Z,501.00
2023-05-03T00:26:58.799Z,504.00
2023-05-03T00:27:58.783Z,501.00
2023-05-03T00:28:58.808Z,503.00
2023-05-03T00:29:58.874Z,502.00
2023-05-03T00:30:58.930Z,504.00
2023-05-03T00:31:58.923Z,502.00
2023-05-03T00:32:59.004Z,505.00
2023-05-03T00:33:58.977Z,500.00
2023-05-03T00:34:59.015Z,503.00
2023-05-03T00:35:59.057Z,500.00
2023-05-03T00:36:59.095Z,507.00
2023-05-03T00:37:59.114Z,502.00
2023-05-03T00:38:59.155Z,509.00
2023-05-03T00:39:59.183Z,507.00
2023-05-03T00:40:59.227Z,504.00
2023-05-03T00:41:59.264Z,504.00
2023-05-03T00:42:59.307Z,507.00
2023-05-03T00:43:59.318Z,506.00
2023-05-03T00:44:59.345Z,503.00
2023-05-03T00:46:12.486Z,503.00
2023-05-03T00:46:59.831Z,503.00
2023-05-03T00:47:59.838Z,504.00
2023-05-03T00:48:59.744Z,505.00
2023-05-03T00:49:59.809Z,505.00
2023-05-03T00:50:59.784Z,500.00
2023-05-03T00:51:59.745Z,502.00
2023-05-03T00:52:59.777Z,509.00
2023-05-03T00:53:59.757Z,500.00
2023-05-03T00:54:59.750Z,501.00
2023-05-03T00:55:59.746Z,506.00
2023-05-03T00:56:59.748Z,505.00
2023-05-03T00:57:59.745Z,507.00
2023-05-03T00:58:59.401Z,502.00
2023-05-03T00:59:59.388Z,502.00
2023-05-03T01:00:59.364Z,500.00
2023-05-03T01:01:59.686Z,503.00
2023-05-03T01:02:59.790Z,504.00
2023-05-03T01:03:59.493Z,505.00
2023-05-03T01:04:59.376Z,502.00
2023-05-03T01:05:59.372Z,504.00
2023-05-03T01:06:59.366Z,501.00
2023-05-03T01:07:59.366Z,504.00
2023-05-03T01:08:59.368Z,501.00
2023-05-03T01:09:59.381Z,506.00
2023-05-03T01:10:59.353Z,503.00
2023-05-03T01:11:59.360Z,504.00
2023-05-03T01:12:59.350Z,504.00
2023-05-03T01:13:59.368Z,503.00
2023-05-03T01:14:59.371Z,501.00
2023-05-03T01:15:59.383Z,507.00
2023-05-03T01:16:59.353Z,500.00
2023-05-03T01:17:59.413Z,501.00
2023-05-03T01:18:59.413Z,503.00
2023-05-03T01:19:59.511Z,503.00
2023-05-03T01:20:59.522Z,504.00
2023-05-03T01:21:59.519Z,505.00
2023-05-03T01:22:59.554Z,504.00
2023-05-03T01:23:59.586Z,500.00
2023-05-03T01:24:59.613Z,503.00
2023-05-03T01:25:59.658Z,504.00
2023-05-03T01:26:59.687Z,503.00
2023-05-03T01:27:59.727Z,501.00
2023-05-03T01:28:59.760Z,503.00
2023-05-03T01:30:00.474Z,506.00
2023-05-03T01:31:00.212Z,504.00
2023-05-03T01:32:00.249Z,501.00
2023-05-03T01:33:00.288Z,502.00
2023-05-03T01:34:00.182Z,500.00
2023-05-03T01:35:00.180Z,504.00
2023-05-03T01:36:00.210Z,504.00
2023-05-03T01:37:00.206Z,503.00
2023-05-03T01:38:00.193Z,502.00
2023-05-03T01:39:00.195Z,508.00
2023-05-03T01:40:00.585Z,507.00
2023-05-03T01:41:00.187Z,502.00
2023-05-03T01:42:00.209Z,502.00
2023-05-03T01:43:00.248Z,500.00
2023-05-03T01:44:00.274Z,500.00
2023-05-03T01:45:00.313Z,502.00
2023-05-03T01:46:00.359Z,503.00
2023-05-03T01:47:00.404Z,512.00
2023-05-03T01:48:00.467Z,504.00
2023-05-03T01:49:00.456Z,509.00
2023-05-03T01:50:00.849Z,500.00
2023-05-03T01:51:00.542Z,504.00
2023-05-03T01:52:00.552Z,503.00
2023-05-03T01:53:00.596Z,502.00
2023-05-03T01:54:00.620Z,502.00
2023-05-03T01:55:00.667Z,512.00
2023-05-03T01:56:00.692Z,507.00
2023-05-03T01:57:00.730Z,503.00
2023-05-03T01:58:00.767Z,508.00
2023-05-03T01:59:00.801Z,504.00
2023-05-03T02:00:01.039Z,505.00
2023-05-03T02:01:00.911Z,502.00
2023-05-03T02:02:00.916Z,504.00
2023-05-03T02:03:01.016Z,505.00
2023-05-03T02:04:01.084Z,510.00
2023-05-03T02:05:01.041Z,502.00
2023-05-03T02:06:01.127Z,505.00
2023-05-03T02:07:01.179Z,502.00
2023-05-03T02:08:01.146Z,508.00
2023-05-03T02:09:01.179Z,504.00
2023-05-03T02:10:01.629Z,503.00
2023-05-03T02:11:01.264Z,505.00
2023-05-03T02:12:01.297Z,506.00
2023-05-03T02:13:01.337Z,504.00
2023-05-03T02:14:01.369Z,504.00
2023-05-03T02:15:01.414Z,508.00
2023-05-03T02:16:01.446Z,501.00
2023-05-03T02:17:01.568Z,504.00
2023-05-03T02:18:01.552Z,502.00
2023-05-03T02:19:01.569Z,503.00
2023-05-03T02:20:01.929Z,500.00
2023-05-03T02:21:01.634Z,504.00
2023-05-03T02:22:01.652Z,506.00
2023-05-03T02:23:01.687Z,509.00
2023-05-03T02:24:01.743Z,504.00
2023-05-03T02:25:01.788Z,503.00
2023-05-03T02:26:01.781Z,506.00
2023-05-03T02:27:01.827Z,506.00
2023-05-03T02:28:01.844Z,505.00
2023-05-03T02:29:01.902Z,504.00
2023-05-03T02:30:02.481Z,500.00
2023-05-03T02:31:02.013Z,503.00
2023-05-03T02:32:01.998Z,505.00
2023-05-03T02:33:02.076Z,500.00
2023-05-03T02:34:02.071Z,504.00
2023-05-03T02:35:02.095Z,503.00
2023-05-03T02:36:02.132Z,511.00
2023-05-03T02:37:02.174Z,505.00
2023-05-03T02:38:02.188Z,503.00
2023-05-03T02:39:02.227Z,504.00
2023-05-03T02:40:02.460Z,504.00
2023-05-03T02:41:02.303Z,504.00
2023-05-03T02:42:02.343Z,508.00
2023-05-03T02:43:02.382Z,507.00
2023-05-03T02:44:02.402Z,503.00
2023-05-03T02:45:02.443Z,504.00
2023-05-03T02:46:02.505Z,500.00
2023-05-03T02:47:02.522Z,507.00
2023-05-03T02:48:02.611Z,504.00
2023-05-03T02:49:02.668Z,501.00
2023-05-03T02:50:02.745Z,506.00
2023-05-03T02:51:02.685Z,504.00
2023-05-03T02:52:02.703Z,506.00
2023-05-03T02:53:02.738Z,505.00
2023-05-03T02:54:02.790Z,504.00
2023-05-03T02:55:02.838Z,506.00
2023-05-03T02:56:02.850Z,503.00
2023-05-03T02:57:02.891Z,509.00
2023-05-03T02:58:02.930Z,504.00
2023-05-03T02:59:02.960Z,500.00
2023-05-03T03:00:03.255Z,503.00
2023-05-03T03:01:03.041Z,504.00
2023-05-03T03:02:03.131Z,507.00
2023-05-03T03:03:03.222Z,505.00
2023-05-03T03:04:03.287Z,504.00
2023-05-03T03:05:03.194Z,505.00
2023-05-03T03:06:03.257Z,502.00
2023-05-03T03:07:03.301Z,508.00
2023-05-03T03:08:03.297Z,502.00
2023-05-03T03:09:03.347Z,503.00
2023-05-03T03:10:03.634Z,504.00
2023-05-03T03:11:03.421Z,505.00
2023-05-03T03:12:03.534Z,502.00
2023-05-03T03:13:03.519Z,501.00
2023-05-03T03:14:03.556Z,504.00
2023-05-03T03:15:03.597Z,509.00
2023-05-03T03:16:03.665Z,510.00
2023-05-03T03:17:03.678Z,506.00
2023-05-03T03:18:03.794Z,504.00
2023-05-03T03:19:03.745Z,503.00
2023-05-03T03:20:04.114Z,504.00
2023-05-03T03:21:03.829Z,508.00
2023-05-03T03:22:03.872Z,501.00
2023-05-03T03:23:03.930Z,509.00
2023-05-03T03:24:03.957Z,505.00
2023-05-03T03:25:03.994Z,503.00
2023-05-03T03:26:04.021Z,501.00
2023-05-03T03:27:04.065Z,500.00
2023-05-03T03:28:04.106Z,507.00
2023-05-03T03:29:04.143Z,503.00
2023-05-03T03:30:04.501Z,506.00
2023-05-03T03:31:04.245Z,508.00
2023-05-03T03:32:04.454Z,511.00
2023-05-03T03:33:04.397Z,506.00
2023-05-03T03:34:04.348Z,506.00
2023-05-03T03:35:04.396Z,505.00
2023-05-03T03:36:04.442Z,511.00
2023-05-03T03:37:04.841Z,508.00
2023-05-03T03:38:04.902Z,506.00
2023-05-03T03:39:04.923Z,502.00
2023-05-03T03:40:05.203Z,512.00
2023-05-03T03:41:04.921Z,506.00
2023-05-03T03:42:04.921Z,500.00
2023-05-03T03:43:04.899Z,504.00
2023-05-03T03:44:04.885Z,509.00
2023-05-03T03:45:04.885Z,507.00
2023-05-03T03:46:04.887Z,503.00
2023-05-03T03:47:04.959Z,503.00
2023-05-03T03:48:05.022Z,503.00
2023-05-03T03:49:04.995Z,509.00
2023-05-03T03:50:05.323Z,504.00
2023-05-03T03:51:05.076Z,502.00
2023-05-03T03:52:05.112Z,508.00
2023-05-03T03:53:05.148Z,503.00
2023-05-03T03:54:05.197Z,501.00
2023-05-03T03:55:05.264Z,510.00
2023-05-03T03:56:05.281Z,507.00
2023-05-03T03:57:05.376Z,509.00
2023-05-03T03:58:05.409Z,500.00
2023-05-03T03:59:05.421Z,502.00
2023-05-03T04:00:05.875Z,505.00
2023-05-03T04:01:05.467Z,504.00
2023-05-03T04:02:05.539Z,504.00
2023-05-03T04:03:07.577Z,503.00
2023-05-03T04:04:05.677Z,507.00
2023-05-03T04:05:05.554Z,507.00
2023-05-03T04:06:05.566Z,508.00
2023-05-03T04:07:05.551Z,506.00
2023-05-03T04:08:05.564Z,502.00
2023-05-03T04:09:05.559Z,505.00
2023-05-03T04:10:05.896Z,501.00
2023-05-03T04:11:05.570Z,510.00
2023-05-03T04:12:05.541Z,507.00
2023-05-03T04:13:05.570Z,503.00
2023-05-03T04:14:05.555Z,505.00
2023-05-03T04:15:05.541Z,505.00
2023-05-03T04:16:05.580Z,504.00
2023-05-03T04:17:05.604Z,502.00
2023-05-03T04:18:05.593Z,507.00
2023-05-03T04:19:05.540Z,502.00
2023-05-03T04:20:05.870Z,505.00
2023-05-03T04:21:05.522Z,503.00
2023-05-03T04:22:05.530Z,503.00
2023-05-03T04:23:05.514Z,506.00
2023-05-03T04:24:05.506Z,504.00
2023-05-03T04:25:05.506Z,501.00
2023-05-03T04:26:05.594Z,503.00
2023-05-03T04:27:05.776Z,504.00
2023-05-03T04:28:05.566Z,503.00
2023-05-03T04:29:05.621Z,504.00
2023-05-03T04:30:05.847Z,507.00
2023-05-03T04:31:05.778Z,504.00
2023-05-03T04:32:05.750Z,504.00
2023-05-03T04:33:06.168Z,504.00
2023-05-03T04:34:06.192Z,500.00
2023-05-03T04:35:06.184Z,511.00
2023-05-03T04:36:06.196Z,507.00
2023-05-03T04:37:06.190Z,507.00
2023-05-03T04:38:06.201Z,503.00
2023-05-03T04:39:06.209Z,501.00
2023-05-03T04:40:06.192Z,510.00
2023-05-03T04:41:06.180Z,504.00
2023-05-03T04:42:06.189Z,504.00
2023-05-03T04:43:06.242Z,505.00
2023-05-03T04:44:06.266Z,500.00
2023-05-03T04:45:06.305Z,504.00
2023-05-03T04:46:06.404Z,503.00
2023-05-03T04:47:06.381Z,502.00
2023-05-03T04:48:06.477Z,503.00
2023-05-03T04:49:06.473Z,510.00
2023-05-03T04:50:06.742Z,505.00
2023-05-03T04:51:06.602Z,505.00
2023-05-03T04:52:06.629Z,509.00
2023-05-03T04:53:06.663Z,509.00
2023-05-03T04:54:06.685Z,502.00
2023-05-03T04:55:06.740Z,501.00
2023-05-03T04:56:06.784Z,505.00
2023-05-03T04:57:06.824Z,508.00
2023-05-03T04:58:06.879Z,507.00
2023-05-03T04:59:06.948Z,506.00
2023-05-03T05:00:07.080Z,503.00
2023-05-03T05:01:07.245Z,509.00
2023-05-03T05:02:07.060Z,501.00
2023-05-03T05:03:07.255Z,506.00
2023-05-03T05:04:07.148Z,508.00
2023-05-03T05:05:07.164Z,505.00
2023-05-03T05:06:07.313Z,503.00
2023-05-03T05:07:07.256Z,500.00
2023-05-03T05:08:07.302Z,510.00
2023-05-03T05:09:07.370Z,508.00
2023-05-03T05:10:07.395Z,504.00
2023-05-03T05:11:07.457Z,504.00
2023-05-03T05:12:07.497Z,507.00
2023-05-03T05:13:07.529Z,507.00
2023-05-03T05:14:07.562Z,503.00
2023-05-03T05:15:07.628Z,506.00
2023-05-03T05:16:07.659Z,500.00
2023-05-03T05:17:07.733Z,507.00
2023-05-03T05:18:07.844Z,504.00
2023-05-03T05:19:07.855Z,504.00
2023-05-03T05:20:07.862Z,505.00
2023-05-03T05:21:07.879Z,504.00
2023-05-03T05:22:07.949Z,511.00
2023-05-03T05:23:08.029Z,535.00
2023-05-03T05:24:08.034Z,545.00
2023-05-03T05:25:08.085Z,523.00
2023-05-03T05:26:08.116Z,518.00
2023-05-03T05:27:08.163Z,524.00
2023-05-03T05:28:08.211Z,533.00
2023-05-03T05:29:08.264Z,546.00
2023-05-03T05:30:08.366Z,551.00
2023-05-03T05:31:08.399Z,538.00
2023-05-03T05:32:08.429Z,544.00
2023-05-03T05:33:08.439Z,555.00
2023-05-03T05:34:08.515Z,562.00
2023-05-03T05:35:08.509Z,574.00
2023-05-03T05:36:08.541Z,572.00
2023-05-03T05:37:08.578Z,568.00
2023-05-03T05:38:08.616Z,566.00
2023-05-03T05:39:08.643Z,573.00
2023-05-03T05:40:08.665Z,579.00
2023-05-03T05:41:08.873Z,584.00
2023-05-03T05:42:08.744Z,659.00
2023-05-03T05:43:08.880Z,808.00
2023-05-03T05:44:08.797Z,746.00
2023-05-03T05:45:08.851Z,683.00
2023-05-03T05:46:08.920Z,646.00
2023-05-03T05:47:09.446Z,653.00
2023-05-03T05:48:09.003Z,613.00
2023-05-03T05:49:09.020Z,606.00
2023-05-03T05:50:16.965Z,580.00
2023-05-03T05:51:09.082Z,581.00
2023-05-03T05:52:09.378Z,572.00
2023-05-03T05:53:09.105Z,569.00
2023-05-03T05:54:09.090Z,577.00
2023-05-03T05:55:09.098Z,565.00
2023-05-03T05:56:09.108Z,556.00
2023-05-03T05:57:10.379Z,533.00
2023-05-03T05:58:09.378Z,533.00
2023-05-03T05:59:09.119Z,570.00
2023-05-03T06:00:09.127Z,568.00
2023-05-03T06:01:09.138Z,570.00
2023-05-03T06:02:09.411Z,567.00
2023-05-03T06:03:09.241Z,572.00
2023-05-03T06:04:09.159Z,561.00
2023-05-03T06:05:09.173Z,559.00
2023-05-03T06:06:09.233Z,577.00
2023-05-03T06:07:12.589Z,575.00
2023-05-03T06:08:09.200Z,575.00
2023-05-03T06:09:22.974Z,576.00
2023-05-03T06:10:09.393Z,576.00
2023-05-03T06:11:09.204Z,576.00
2023-05-03T06:12:09.244Z,577.00
2023-05-03T06:13:09.216Z,567.00
2023-05-03T06:14:09.394Z,550.00
2023-05-03T06:15:09.234Z,560.00
2023-05-03T06:16:09.248Z,567.00
2023-05-03T06:17:09.298Z,574.00
2023-05-03T06:18:09.288Z,569.00
2023-05-03T06:19:09.513Z,568.00
2023-05-03T06:20:09.253Z,568.00
2023-05-03T07:20:29.450Z,500.00
2023-05-03T07:21:29.408Z,500.00
2023-05-03T11:31:21.369Z,500.00
2023-05-03T11:32:22.383Z,500.00
2023-05-03T11:33:22.296Z,500.00
2023-05-03T11:34:22.278Z,500.00
2023-05-03T11:35:22.274Z,500.00
2023-05-03T11:36:22.275Z,500.00
2023-05-03T11:37:22.267Z,500.00
2023-05-03T11:38:22.254Z,499.00
2023-05-03T11:39:22.350Z,498.00
2023-05-03T11:40:22.237Z,500.00
2023-05-03T11:41:22.239Z,501.00
2023-05-03T11:42:22.246Z,503.00
2023-05-03T11:43:22.227Z,500.00
2023-05-03T11:44:22.500Z,502.00
2023-05-03T11:45:23.352Z,501.00
2023-05-03T11:46:22.213Z,507.00
2023-05-03T11:47:22.378Z,501.00
2023-05-03T11:48:22.339Z,502.00
2023-05-03T11:49:22.177Z,502.00
2023-05-03T11:50:22.165Z,503.00
2023-05-03T11:51:22.162Z,510.00
2023-05-03T11:52:22.188Z,504.00
2023-05-03T11:53:22.259Z,505.00
2023-05-03T11:54:26.112Z,508.00
2023-05-03T11:55:22.229Z,509.00
2023-05-03T11:56:22.212Z,510.00
2023-05-03T11:57:22.230Z,511.00
2023-05-03T11:58:22.208Z,510.00
2023-05-03T11:59:22.179Z,511.00
2023-05-03T12:00:22.192Z,517.00
2023-05-03T12:01:22.261Z,513.00
2023-05-03T12:02:22.172Z,512.00
2023-05-03T12:03:23.378Z,509.00
2023-05-03T12:04:22.422Z,510.00
2023-05-03T12:05:23.286Z,514.00
2023-05-03T12:06:23.044Z,519.00
2023-05-03T12:07:23.524Z,504.00
2023-05-03T12:08:23.221Z,408.00
2023-05-03T12:09:23.516Z,400.00
2023-05-03T12:10:25.848Z,400.00
2023-05-03T12:11:25.179Z,400.00
2023-05-03T12:12:26.555Z,400.00
2023-05-03T12:13:24.391Z,400.00
2023-05-03T12:14:22.268Z,436.00
2023-05-03T12:15:22.828Z,436.00
2023-05-03T12:16:22.196Z,442.00
2023-05-03T12:17:22.346Z,477.00
2023-05-03T12:18:22.262Z,469.00
2023-05-03T12:22:26.540Z,557.00
2023-05-03T12:23:22.414Z,558.00
2023-05-03T12:24:24.328Z,560.00
2023-05-03T12:25:25.724Z,558.00
2023-05-03T12:26:22.156Z,559.00
2023-05-03T12:27:23.613Z,565.00
2023-05-03T12:28:22.055Z,559.00
2023-05-03T12:29:23.752Z,566.00
2023-05-03T12:30:23.515Z,559.00
2023-05-03T12:31:22.970Z,560.00
2023-05-03T12:32:23.076Z,561.00
2023-05-03T12:33:23.265Z,574.00
2023-05-03T12:34:33.946Z,598.00
2023-05-03T12:35:22.554Z,561.00
2023-05-03T12:36:25.674Z,562.00
2023-05-03T12:37:22.377Z,562.00
2023-05-03T12:39:22.013Z,606.00
2023-05-03T12:40:33.264Z,652.00
2023-05-03T12:41:52.264Z,562.00
2023-05-03T12:42:22.585Z,563.00
2023-05-03T12:43:22.148Z,564.00
2023-05-03T12:44:28.700Z,585.00
2023-05-03T12:45:22.321Z,563.00
2023-05-03T12:46:34.041Z,564.00
2023-05-03T12:47:28.283Z,564.00
2023-05-03T12:48:21.977Z,564.00
2023-05-03T12:49:23.614Z,590.00
2023-05-03T12:50:24.618Z,565.00
2023-05-03T12:51:25.657Z,565.00
2023-05-03T12:52:37.039Z,565.00
2023-05-03T12:53:25.653Z,565.00
2023-05-03T12:54:24.161Z,566.00
2023-05-03T12:55:25.248Z,566.00
2023-05-03T12:56:25.770Z,566.00
2023-05-03T12:59:40.302Z,601.00
2023-05-03T13:03:13.864Z,583.00
2023-05-03T13:03:22.327Z,559.00
2023-05-03T13:04:55.855Z,564.00
2023-05-03T13:05:33.763Z,558.00
2023-05-03T13:06:21.797Z,558.00
2023-05-03T13:07:28.130Z,561.00
2023-05-03T13:08:22.042Z,557.00
2023-05-03T13:09:24.718Z,557.00
2023-05-03T13:11:20.542Z,551.00
2023-05-03T13:12:21.498Z,535.00
2023-05-03T13:13:21.440Z,526.00
2023-05-03T13:14:21.580Z,524.00
2023-05-03T13:15:21.417Z,507.00
2023-05-03T13:16:21.486Z,500.00
2023-05-03T13:17:21.397Z,506.00
2023-05-03T13:18:21.436Z,500.00
2023-05-03T13:19:21.565Z,503.00
2023-05-03T13:20:21.370Z,498.00
2023-05-03T13:21:21.354Z,503.00
2023-05-03T13:22:21.337Z,507.00
2023-05-03T13:23:22.082Z,500.00
2023-05-03T13:24:21.316Z,500.00
2023-05-03T13:25:21.332Z,500.00
2023-05-03T13:26:21.289Z,506.00
2023-05-03T13:27:21.277Z,503.00
2023-05-03T13:28:21.266Z,501.00
2023-05-03T13:29:21.261Z,508.00
2023-05-03T13:30:21.256Z,519.00
2023-05-03T13:31:21.276Z,514.00
2023-05-03T13:32:21.276Z,528.00
2023-05-03T13:33:21.312Z,515.00
2023-05-03T13:34:21.207Z,537.00
2023-05-03T13:35:21.203Z,538.00
2023-05-03T13:36:21.188Z,534.00
2023-05-03T13:37:21.179Z,546.00
2023-05-03T13:38:21.155Z,549.00
2023-05-03T13:39:21.177Z,566.00
2023-05-03T13:40:21.147Z,568.00
2023-05-03T13:41:21.134Z,576.00
2023-05-03T13:42:21.143Z,568.00
2023-05-03T13:43:21.167Z,580.00
2023-05-03T13:44:21.204Z,582.00
2023-05-03T13:45:22.054Z,590.00
2023-05-03T13:46:21.294Z,594.00
2023-05-03T13:47:21.309Z,590.00
2023-05-03T13:48:21.354Z,589.00
2023-05-03T13:49:21.360Z,592.00
2023-05-03T13:50:21.393Z,599.00
2023-05-03T13:51:21.416Z,595.00
2023-05-03T13:52:21.444Z,592.00
2023-05-03T13:53:21.470Z,598.00
2023-05-03T13:54:21.501Z,597.00
2023-05-03T13:55:21.563Z,600.00
2023-05-03T13:56:21.632Z,593.00
2023-05-03T13:57:21.602Z,594.00
2023-05-03T13:58:21.627Z,603.00
2023-05-03T13:59:21.667Z,598.00
2023-05-03T14:00:21.724Z,605.00
2023-05-03T14:01:21.799Z,604.00
2023-05-03T14:02:21.859Z,602.00
2023-05-03T14:03:21.989Z,596.00
2023-05-03T14:04:21.889Z,600.00
2023-05-03T14:05:21.868Z,603.00
2023-05-03T14:06:21.916Z,599.00
2023-05-03T14:07:21.941Z,604.00
2023-05-03T14:08:20.980Z,603.00
2023-05-03T14:09:22.024Z,603.00
2023-05-03T14:10:22.058Z,606.00
2023-05-03T14:11:22.228Z,607.00
2023-05-03T14:12:22.157Z,605.00
2023-05-03T14:13:22.245Z,610.00
2023-05-03T14:14:22.191Z,600.00
2023-05-03T14:15:22.239Z,606.00
2023-05-03T14:16:35.701Z,606.00
2023-05-03T14:17:22.261Z,607.00
2023-05-03T14:18:22.329Z,608.00
2023-05-03T14:19:22.234Z,609.00
2023-05-03T14:20:22.269Z,609.00
2023-05-03T14:21:22.218Z,615.00
2023-05-03T14:22:22.207Z,612.00
2023-05-03T14:23:22.190Z,610.00
2023-05-03T14:24:22.209Z,610.00
2023-05-03T14:25:22.188Z,616.00
2023-05-03T14:26:22.263Z,612.00
2023-05-03T14:27:22.248Z,608.00
2023-05-03T14:28:23.342Z,607.00
2023-05-03T14:29:23.253Z,613.00
2023-05-03T14:30:22.095Z,606.00
2023-05-03T14:31:22.100Z,615.00
2023-05-03T14:32:22.189Z,613.00
2023-05-03T14:33:22.098Z,611.00
2023-05-03T14:34:22.122Z,614.00
2023-05-03T14:35:22.206Z,610.00
2023-05-03T14:36:22.285Z,612.00
2023-05-03T14:37:22.264Z,612.00
2023-05-03T14:38:22.307Z,605.00
2023-05-03T14:39:22.372Z,605.00
2023-05-03T14:40:22.385Z,611.00
2023-05-03T14:41:22.430Z,613.00
2023-05-03T14:42:22.489Z,607.00
2023-05-03T14:43:21.561Z,611.00
2023-05-03T14:44:22.574Z,615.00
2023-05-03T14:45:22.628Z,613.00
2023-05-03T14:46:22.804Z,607.00
2023-05-03T14:47:22.747Z,608.00
2023-05-03T14:48:22.790Z,613.00
2023-05-03T14:49:22.828Z,618.00
2023-05-03T14:50:23.264Z,607.00
2023-05-03T14:51:23.283Z,615.00
2023-05-03T14:52:23.268Z,612.00
2023-05-03T14:53:23.263Z,613.00
2023-05-03T14:54:23.272Z,612.00
2023-05-03T14:55:23.273Z,618.00
2023-05-03T14:56:23.272Z,619.00
2023-05-03T14:57:23.269Z,614.00
2023-05-03T14:58:23.370Z,614.00
2023-05-03T14:59:23.336Z,617.00
2023-05-03T15:00:23.373Z,618.00
2023-05-03T15:01:23.549Z,616.00
2023-05-03T15:02:23.503Z,614.00
2023-05-03T15:03:23.549Z,617.00
2023-05-03T15:04:23.561Z,614.00
2023-05-03T15:05:23.593Z,616.00
2023-05-03T15:06:23.645Z,614.00
2023-05-03T15:07:23.709Z,614.00
2023-05-03T15:08:23.839Z,617.00
2023-05-03T15:09:23.809Z,614.00
2023-05-03T15:10:23.859Z,612.00
2023-05-03T15:11:23.910Z,612.00
2023-05-03T15:12:23.965Z,612.00
2023-05-03T15:13:24.358Z,615.00
2023-05-03T15:14:24.144Z,608.00
2023-05-03T15:15:24.125Z,613.00
2023-05-03T15:16:24.208Z,612.00
2023-05-03T15:17:24.253Z,611.00
2023-05-03T15:18:24.398Z,610.00
2023-05-03T15:19:24.363Z,611.00
2023-05-03T15:20:24.424Z,613.00
2023-05-03T15:21:24.520Z,612.00
2023-05-03T15:22:24.544Z,610.00
2023-05-03T15:23:24.604Z,610.00
2023-05-03T15:24:24.698Z,609.00
2023-05-03T15:25:24.721Z,611.00
2023-05-03T15:26:24.781Z,610.00
2023-05-03T15:27:24.831Z,612.00
2023-05-03T15:28:24.882Z,612.00
2023-05-03T15:29:24.929Z,607.00
2023-05-03T15:30:25.008Z,607.00
2023-05-03T15:31:25.060Z,610.00
2023-05-03T15:32:25.109Z,611.00
2023-05-03T15:33:25.153Z,608.00
2023-05-03T15:34:25.208Z,610.00
2023-05-03T15:35:25.270Z,608.00
2023-05-03T15:36:25.321Z,608.00
2023-05-03T15:37:25.390Z,606.00
2023-05-03T15:38:25.453Z,605.00
2023-05-03T15:39:25.487Z,606.00
2023-05-03T15:40:27.083Z,603.00
2023-05-03T15:41:25.549Z,609.00
2023-05-03T15:42:25.536Z,611.00
2023-05-03T15:43:25.539Z,612.00
2023-05-03T15:44:25.539Z,605.00
2023-05-03T15:45:25.520Z,600.00
2023-05-03T15:46:25.702Z,598.00
2023-05-03T15:47:25.507Z,601.00
2023-05-03T15:48:25.502Z,594.00
2023-05-03T15:49:25.493Z,597.00
2023-05-03T15:50:25.553Z,592.00
2023-05-03T15:51:25.492Z,595.00
2023-05-03T15:52:25.486Z,596.00
2023-05-03T15:53:25.476Z,597.00
2023-05-03T15:54:25.467Z,597.00
2023-05-03T15:55:25.461Z,595.00
2023-05-03T15:56:25.465Z,595.00
2023-05-03T15:57:25.461Z,593.00
2023-05-03T15:58:25.484Z,590.00
2023-05-03T15:59:25.441Z,595.00
2023-05-03T16:00:25.464Z,591.00
2023-05-03T16:01:25.508Z,590.00
2023-05-03T16:02:25.453Z,591.00
2023-05-03T16:03:25.424Z,593.00
2023-05-03T16:04:25.451Z,593.00
2023-05-03T16:05:25.511Z,596.00
2023-05-03T16:06:25.438Z,590.00
2023-05-03T16:07:25.479Z,591.00
2023-05-03T16:08:25.528Z,586.00
2023-05-03T16:09:25.594Z,590.00
2023-05-03T16:10:25.654Z,585.00
2023-05-03T16:11:25.720Z,589.00
2023-05-03T16:12:25.760Z,586.00
2023-05-03T16:13:25.794Z,586.00
2023-05-03T16:14:25.849Z,585.00
2023-05-03T16:15:25.890Z,586.00
2023-05-03T16:16:25.998Z,586.00
2023-05-03T16:17:25.986Z,589.00
2023-05-03T16:18:26.042Z,588.00
2023-05-03T16:19:26.066Z,586.00
2023-05-03T16:20:26.124Z,585.00
2023-05-03T16:21:26.164Z,584.00
2023-05-03T16:22:26.214Z,581.00
2023-05-03T16:23:26.263Z,579.00
2023-05-03T16:24:26.311Z,580.00
2023-05-03T16:25:26.368Z,581.00
2023-05-03T16:26:26.425Z,584.00
2023-05-03T16:27:26.493Z,584.00
2023-05-03T16:28:26.520Z,577.00
2023-05-03T16:29:26.553Z,576.00
2023-05-03T16:30:26.593Z,577.00
2023-05-03T16:31:26.678Z,576.00
2023-05-03T16:32:26.788Z,575.00
2023-05-03T16:33:26.723Z,564.00
2023-05-03T16:34:26.781Z,572.00
2023-05-03T16:35:26.800Z,569.00
2023-05-03T16:36:26.834Z,572.00
2023-05-03T16:37:26.865Z,567.00
2023-05-03T16:38:26.904Z,567.00
2023-05-03T16:39:26.926Z,577.00
2023-05-03T16:40:26.970Z,569.00
2023-05-03T16:41:27.009Z,569.00
2023-05-03T16:42:27.022Z,570.00
2023-05-03T16:43:27.085Z,569.00
2023-05-03T16:44:27.110Z,576.00
2023-05-03T16:45:27.232Z,567.00
2023-05-03T16:46:27.279Z,576.00
2023-05-03T16:47:27.256Z,575.00
2023-05-03T16:48:27.269Z,574.00
2023-05-03T16:49:27.319Z,576.00
2023-05-03T16:50:27.498Z,577.00
2023-05-03T16:51:27.438Z,576.00
2023-05-03T16:52:27.467Z,576.00
2023-05-03T16:53:28.339Z,573.00
2023-05-03T16:54:27.547Z,569.00
2023-05-03T16:55:27.595Z,577.00
2023-05-03T16:56:27.633Z,572.00
2023-05-03T16:57:27.685Z,574.00
2023-05-03T16:58:27.747Z,574.00
2023-05-03T16:59:27.794Z,574.00
2023-05-03T17:00:27.837Z,570.00
2023-05-03T17:01:27.953Z,574.00
2023-05-03T17:02:28.011Z,577.00
2023-05-03T17:03:28.473Z,573.00
2023-05-03T17:04:28.357Z,569.00
2023-05-03T17:05:28.345Z,571.00
2023-05-03T17:06:28.372Z,572.00
2023-05-03T17:07:28.345Z,567.00
2023-05-03T17:08:28.346Z,567.00
2023-05-03T17:09:28.347Z,572.00
2023-05-03T17:10:28.342Z,573.00
2023-05-03T17:11:28.372Z,571.00
2023-05-03T17:12:28.503Z,567.00
2023-05-03T17:13:28.482Z,569.00
2023-05-03T17:14:28.536Z,565.00
2023-05-03T17:15:28.596Z,570.00
2023-05-03T17:16:28.728Z,568.00
2023-05-03T17:17:28.717Z,564.00
2023-05-03T17:18:28.786Z,569.00
2023-05-03T17:19:28.814Z,569.00
2023-05-03T17:20:28.870Z,565.00
2023-05-03T17:21:28.931Z,567.00
2023-05-03T17:22:29.375Z,572.00
2023-05-03T17:23:29.360Z,571.00
2023-05-03T17:24:29.360Z,571.00
2023-05-03T17:25:29.355Z,574.00
2023-05-03T17:26:29.362Z,569.00
2023-05-03T17:27:29.365Z,567.00
2023-05-03T17:28:29.364Z,568.00
2023-05-03T17:29:29.396Z,569.00
2023-05-03T17:30:29.437Z,564.00
2023-05-03T17:31:29.519Z,565.00
2023-05-03T17:32:29.567Z,567.00
2023-05-03T17:33:29.877Z,569.00
2023-05-03T17:34:29.740Z,568.00
2023-05-03T17:35:29.730Z,567.00
2023-05-03T17:36:29.790Z,568.00
2023-05-03T17:37:29.858Z,567.00
2023-05-03T17:38:30.044Z,567.00
2023-05-03T17:39:29.938Z,566.00
2023-05-03T17:40:29.980Z,565.00
2023-05-03T17:41:30.058Z,566.00
2023-05-03T17:42:30.063Z,566.00
2023-05-03T17:43:30.108Z,567.00
2023-05-03T17:44:30.147Z,564.00
2023-05-03T17:45:30.191Z,564.00
2023-05-03T17:46:30.554Z,562.00